sensor_id;sensor_type;location;lat;lon;timestamp;temperature;humidity
10644;DHT22;5370;50.132;8.626;2024-03-02T00:00:00;6.10;87.80
10644;DHT22;5370;50.132;8.626;2024-03-02T00:02:28;6.10;87.80
10644;DHT22;5370;50.132;8.626;2024-03-02T00:04:54;6.00;87.70
10644;DHT22;5370;50.132;8.626;2024-03-02T00:07:19;6.00;87.70
10644;DHT22;5370;50.132;8.626;2024-03-02T00:09:45;6.00;87.90
10644;DHT22;5370;50.132;8.626;2024-03-02T00:12:15;5.90;88.00
10644;DHT22;5370;50.132;8.626;2024-03-02T00:14:41;5.90;88.00
10644;DHT22;5370;50.132;8.626;2024-03-02T00:17:21;5.90;88.10
10644;DHT22;5370;50.132;8.626;2024-03-02T00:19:49;5.80;88.20
10644;DHT22;5370;50.132;8.626;2024-03-02T00:22:15;5.80;88.40
10644;DHT22;5370;50.132;8.626;2024-03-02T00:24:40;5.80;88.50
10644;DHT22;5370;50.132;8.626;2024-03-02T00:27:07;5.80;88.60
10644;DHT22;5370;50.132;8.626;2024-03-02T00:29:33;5.70;88.70
10644;DHT22;5370;50.132;8.626;2024-03-02T00:32:01;5.70;88.90
10644;DHT22;5370;50.132;8.626;2024-03-02T00:34:26;5.70;89.10
10644;DHT22;5370;50.132;8.626;2024-03-02T00:36:52;5.70;89.40
10644;DHT22;5370;50.132;8.626;2024-03-02T00:39:18;5.70;89.60
10644;DHT22;5370;50.132;8.626;2024-03-02T00:41:43;5.70;89.70
10644;DHT22;5370;50.132;8.626;2024-03-02T00:44:16;5.60;89.70
10644;DHT22;5370;50.132;8.626;2024-03-02T00:46:43;5.60;89.90
10644;DHT22;5370;50.132;8.626;2024-03-02T00:49:27;5.60;90.00
10644;DHT22;5370;50.132;8.626;2024-03-02T00:51:53;5.60;90.10
10644;DHT22;5370;50.132;8.626;2024-03-02T00:54:21;5.60;90.10
10644;DHT22;5370;50.132;8.626;2024-03-02T00:56:49;5.60;90.30
10644;DHT22;5370;50.132;8.626;2024-03-02T00:59:15;5.60;90.40
10644;DHT22;5370;50.132;8.626;2024-03-02T01:01:40;5.60;90.50
10644;DHT22;5370;50.132;8.626;2024-03-02T01:04:07;5.60;90.50
10644;DHT22;5370;50.132;8.626;2024-03-02T01:06:32;5.60;90.60
10644;DHT22;5370;50.132;8.626;2024-03-02T01:08:59;5.50;90.50
10644;DHT22;5370;50.132;8.626;2024-03-02T01:11:24;5.50;90.70
10644;DHT22;5370;50.132;8.626;2024-03-02T01:13:50;5.50;90.70
10644;DHT22;5370;50.132;8.626;2024-03-02T01:16:17;5.50;90.80
10644;DHT22;5370;50.132;8.626;2024-03-02T01:18:43;5.50;90.80
10644;DHT22;5370;50.132;8.626;2024-03-02T01:21:08;5.50;90.90
10644;DHT22;5370;50.132;8.626;2024-03-02T01:23:34;5.50;91.00
10644;DHT22;5370;50.132;8.626;2024-03-02T01:25:59;5.50;91.00
10644;DHT22;5370;50.132;8.626;2024-03-02T01:28:25;5.40;91.00
10644;DHT22;5370;50.132;8.626;2024-03-02T01:30:51;5.40;91.10
10644;DHT22;5370;50.132;8.626;2024-03-02T01:33:19;5.40;91.20
10644;DHT22;5370;50.132;8.626;2024-03-02T01:35:45;5.40;91.20
10644;DHT22;5370;50.132;8.626;2024-03-02T01:38:10;5.30;91.20
10644;DHT22;5370;50.132;8.626;2024-03-02T01:40:37;5.30;91.20
10644;DHT22;5370;50.132;8.626;2024-03-02T01:43:04;5.30;91.30
10644;DHT22;5370;50.132;8.626;2024-03-02T01:45:30;5.30;91.50
10644;DHT22;5370;50.132;8.626;2024-03-02T01:47:55;5.30;91.50
10644;DHT22;5370;50.132;8.626;2024-03-02T01:50:29;5.30;91.60
10644;DHT22;5370;50.132;8.626;2024-03-02T01:52:56;5.30;91.70
10644;DHT22;5370;50.132;8.626;2024-03-02T01:55:21;5.20;91.70
10644;DHT22;5370;50.132;8.626;2024-03-02T01:57:48;5.20;91.70
10644;DHT22;5370;50.132;8.626;2024-03-02T02:00:14;5.20;91.70
10644;DHT22;5370;50.132;8.626;2024-03-02T02:02:40;5.20;91.70
10644;DHT22;5370;50.132;8.626;2024-03-02T02:05:06;5.20;91.80
10644;DHT22;5370;50.132;8.626;2024-03-02T02:07:31;5.10;91.80
10644;DHT22;5370;50.132;8.626;2024-03-02T02:09:58;5.10;91.90
10644;DHT22;5370;50.132;8.626;2024-03-02T02:12:24;5.00;91.90
10644;DHT22;5370;50.132;8.626;2024-03-02T02:14:50;5.00;91.90
10644;DHT22;5370;50.132;8.626;2024-03-02T02:17:16;4.90;92.00
10644;DHT22;5370;50.132;8.626;2024-03-02T02:19:42;4.90;92.10
10644;DHT22;5370;50.132;8.626;2024-03-02T02:22:08;4.90;92.20
10644;DHT22;5370;50.132;8.626;2024-03-02T02:24:34;4.90;92.40
10644;DHT22;5370;50.132;8.626;2024-03-02T02:26:59;4.90;92.50
10644;DHT22;5370;50.132;8.626;2024-03-02T02:29:25;4.90;92.60
10644;DHT22;5370;50.132;8.626;2024-03-02T02:31:50;4.90;92.70
10644;DHT22;5370;50.132;8.626;2024-03-02T02:34:16;4.80;92.70
10644;DHT22;5370;50.132;8.626;2024-03-02T02:36:42;4.80;92.80
10644;DHT22;5370;50.132;8.626;2024-03-02T02:39:13;4.80;92.90
10644;DHT22;5370;50.132;8.626;2024-03-02T02:41:39;4.80;93.00
10644;DHT22;5370;50.132;8.626;2024-03-02T02:44:05;4.80;93.00
10644;DHT22;5370;50.132;8.626;2024-03-02T02:46:30;4.70;93.00
10644;DHT22;5370;50.132;8.626;2024-03-02T02:48:56;4.70;93.10
10644;DHT22;5370;50.132;8.626;2024-03-02T02:51:21;4.70;93.20
10644;DHT22;5370;50.132;8.626;2024-03-02T02:53:47;4.60;93.20
10644;DHT22;5370;50.132;8.626;2024-03-02T02:56:12;4.60;93.30
10644;DHT22;5370;50.132;8.626;2024-03-02T02:58:40;4.60;93.40
10644;DHT22;5370;50.132;8.626;2024-03-02T03:01:06;4.60;93.60
10644;DHT22;5370;50.132;8.626;2024-03-02T03:03:33;4.60;93.90
10644;DHT22;5370;50.132;8.626;2024-03-02T03:05:58;4.60;94.20
10644;DHT22;5370;50.132;8.626;2024-03-02T03:08:24;4.60;94.40
10644;DHT22;5370;50.132;8.626;2024-03-02T03:10:49;4.70;94.60
10644;DHT22;5370;50.132;8.626;2024-03-02T03:13:15;4.70;94.90
10644;DHT22;5370;50.132;8.626;2024-03-02T03:15:41;4.70;95.00
10644;DHT22;5370;50.132;8.626;2024-03-02T03:18:06;4.60;94.90
10644;DHT22;5370;50.132;8.626;2024-03-02T03:20:33;4.60;95.10
10644;DHT22;5370;50.132;8.626;2024-03-02T03:22:59;4.60;94.90
10644;DHT22;5370;50.132;8.626;2024-03-02T03:25:24;4.50;94.80
10644;DHT22;5370;50.132;8.626;2024-03-02T03:27:50;4.50;94.90
10644;DHT22;5370;50.132;8.626;2024-03-02T03:30:18;4.50;95.00
10644;DHT22;5370;50.132;8.626;2024-03-02T03:32:43;4.50;95.40
10644;DHT22;5370;50.132;8.626;2024-03-02T03:35:09;4.60;95.70
10644;DHT22;5370;50.132;8.626;2024-03-02T03:37:35;4.60;95.80
10644;DHT22;5370;50.132;8.626;2024-03-02T03:40:01;4.60;95.70
10644;DHT22;5370;50.132;8.626;2024-03-02T03:42:28;4.60;95.60
10644;DHT22;5370;50.132;8.626;2024-03-02T03:44:53;4.50;95.50
10644;DHT22;5370;50.132;8.626;2024-03-02T03:47:19;4.50;95.60
10644;DHT22;5370;50.132;8.626;2024-03-02T03:49:45;4.50;95.60
10644;DHT22;5370;50.132;8.626;2024-03-02T03:52:11;4.50;95.80
10644;DHT22;5370;50.132;8.626;2024-03-02T03:54:36;4.50;96.00
10644;DHT22;5370;50.132;8.626;2024-03-02T03:57:03;4.60;96.20
10644;DHT22;5370;50.132;8.626;2024-03-02T03:59:29;4.60;96.40
10644;DHT22;5370;50.132;8.626;2024-03-02T04:01:55;4.60;96.50
10644;DHT22;5370;50.132;8.626;2024-03-02T04:04:20;4.60;96.40
10644;DHT22;5370;50.132;8.626;2024-03-02T04:06:46;4.60;96.30
10644;DHT22;5370;50.132;8.626;2024-03-02T04:09:11;4.60;96.20
10644;DHT22;5370;50.132;8.626;2024-03-02T04:11:37;4.60;96.10
10644;DHT22;5370;50.132;8.626;2024-03-02T04:14:02;4.50;96.00
10644;DHT22;5370;50.132;8.626;2024-03-02T04:16:28;4.50;96.00
10644;DHT22;5370;50.132;8.626;2024-03-02T04:18:54;4.50;96.10
10644;DHT22;5370;50.132;8.626;2024-03-02T04:21:19;4.50;96.30
10644;DHT22;5370;50.132;8.626;2024-03-02T04:23:45;4.50;96.40
10644;DHT22;5370;50.132;8.626;2024-03-02T04:26:11;4.50;96.50
10644;DHT22;5370;50.132;8.626;2024-03-02T04:28:36;4.50;96.40
10644;DHT22;5370;50.132;8.626;2024-03-02T04:31:02;4.50;96.50
10644;DHT22;5370;50.132;8.626;2024-03-02T04:33:27;4.50;96.60
10644;DHT22;5370;50.132;8.626;2024-03-02T04:35:53;4.50;96.60
10644;DHT22;5370;50.132;8.626;2024-03-02T04:38:18;4.50;96.50
10644;DHT22;5370;50.132;8.626;2024-03-02T04:40:44;4.50;96.60
10644;DHT22;5370;50.132;8.626;2024-03-02T04:43:09;4.60;96.70
10644;DHT22;5370;50.132;8.626;2024-03-02T04:45:37;4.60;96.70
10644;DHT22;5370;50.132;8.626;2024-03-02T04:48:03;4.60;97.00
10644;DHT22;5370;50.132;8.626;2024-03-02T04:50:29;4.60;96.60
10644;DHT22;5370;50.132;8.626;2024-03-02T04:52:55;4.60;96.60
10644;DHT22;5370;50.132;8.626;2024-03-02T04:55:20;4.60;96.40
10644;DHT22;5370;50.132;8.626;2024-03-02T04:58:04;4.60;96.30
10644;DHT22;5370;50.132;8.626;2024-03-02T05:00:30;4.50;96.20
10644;DHT22;5370;50.132;8.626;2024-03-02T05:02:56;4.50;96.10
10644;DHT22;5370;50.132;8.626;2024-03-02T05:05:21;4.40;96.10
10644;DHT22;5370;50.132;8.626;2024-03-02T05:07:47;4.40;96.10
10644;DHT22;5370;50.132;8.626;2024-03-02T05:10:13;4.30;96.00
10644;DHT22;5370;50.132;8.626;2024-03-02T05:12:39;4.30;96.10
10644;DHT22;5370;50.132;8.626;2024-03-02T05:15:11;4.20;96.10
10644;DHT22;5370;50.132;8.626;2024-03-02T05:17:37;4.20;96.20
10644;DHT22;5370;50.132;8.626;2024-03-02T05:20:05;4.20;96.30
10644;DHT22;5370;50.132;8.626;2024-03-02T05:22:31;4.20;96.40
10644;DHT22;5370;50.132;8.626;2024-03-02T05:24:56;4.20;96.50
10644;DHT22;5370;50.132;8.626;2024-03-02T05:27:22;4.20;96.70
10644;DHT22;5370;50.132;8.626;2024-03-02T05:29:48;4.20;96.70
10644;DHT22;5370;50.132;8.626;2024-03-02T05:32:13;4.20;96.70
10644;DHT22;5370;50.132;8.626;2024-03-02T05:34:39;4.20;96.80
10644;DHT22;5370;50.132;8.626;2024-03-02T05:37:04;4.20;96.90
10644;DHT22;5370;50.132;8.626;2024-03-02T05:39:30;4.30;96.90
10644;DHT22;5370;50.132;8.626;2024-03-02T05:41:55;4.20;97.10
10644;DHT22;5370;50.132;8.626;2024-03-02T05:44:21;4.20;96.80
10644;DHT22;5370;50.132;8.626;2024-03-02T05:46:47;4.20;96.70
10644;DHT22;5370;50.132;8.626;2024-03-02T05:49:13;4.20;96.80
10644;DHT22;5370;50.132;8.626;2024-03-02T05:51:38;4.10;96.90
10644;DHT22;5370;50.132;8.626;2024-03-02T05:54:04;4.20;97.00
10644;DHT22;5370;50.132;8.626;2024-03-02T05:56:30;4.20;97.20
10644;DHT22;5370;50.132;8.626;2024-03-02T05:58:55;4.20;97.30
10644;DHT22;5370;50.132;8.626;2024-03-02T06:01:43;4.30;97.40
10644;DHT22;5370;50.132;8.626;2024-03-02T06:04:09;4.30;97.50
10644;DHT22;5370;50.132;8.626;2024-03-02T06:06:36;4.40;97.70
10644;DHT22;5370;50.132;8.626;2024-03-02T06:09:03;4.40;97.80
10644;DHT22;5370;50.132;8.626;2024-03-02T06:11:38;4.50;98.10
10644;DHT22;5370;50.132;8.626;2024-03-02T06:14:05;4.70;98.20
10644;DHT22;5370;50.132;8.626;2024-03-02T06:16:30;4.70;98.20
10644;DHT22;5370;50.132;8.626;2024-03-02T06:18:56;4.80;98.20
10644;DHT22;5370;50.132;8.626;2024-03-02T06:21:25;4.90;98.20
10644;DHT22;5370;50.132;8.626;2024-03-02T06:23:51;5.00;98.10
10644;DHT22;5370;50.132;8.626;2024-03-02T06:26:17;5.00;98.00
10644;DHT22;5370;50.132;8.626;2024-03-02T06:28:43;5.10;97.90
10644;DHT22;5370;50.132;8.626;2024-03-02T06:31:09;5.10;97.70
10644;DHT22;5370;50.132;8.626;2024-03-02T06:33:35;5.20;97.60
10644;DHT22;5370;50.132;8.626;2024-03-02T06:36:01;5.20;97.50
10644;DHT22;5370;50.132;8.626;2024-03-02T06:38:27;5.20;97.40
10644;DHT22;5370;50.132;8.626;2024-03-02T06:40:52;5.30;97.30
10644;DHT22;5370;50.132;8.626;2024-03-02T06:43:18;5.30;97.40
10644;DHT22;5370;50.132;8.626;2024-03-02T06:45:43;5.40;97.30
10644;DHT22;5370;50.132;8.626;2024-03-02T06:48:09;5.40;97.10
10644;DHT22;5370;50.132;8.626;2024-03-02T06:50:34;5.40;97.10
10644;DHT22;5370;50.132;8.626;2024-03-02T06:53:00;5.50;97.00
10644;DHT22;5370;50.132;8.626;2024-03-02T06:55:26;5.50;96.80
10644;DHT22;5370;50.132;8.626;2024-03-02T06:57:51;5.60;96.70
10644;DHT22;5370;50.132;8.626;2024-03-02T07:00:18;5.50;96.60
10644;DHT22;5370;50.132;8.626;2024-03-02T07:02:45;5.50;96.60
10644;DHT22;5370;50.132;8.626;2024-03-02T07:05:11;5.60;96.60
10644;DHT22;5370;50.132;8.626;2024-03-02T07:07:37;5.60;96.50
10644;DHT22;5370;50.132;8.626;2024-03-02T07:10:06;5.60;96.50
10644;DHT22;5370;50.132;8.626;2024-03-02T07:12:32;5.60;96.50
10644;DHT22;5370;50.132;8.626;2024-03-02T07:14:58;5.60;96.40
10644;DHT22;5370;50.132;8.626;2024-03-02T07:17:30;5.60;96.20
10644;DHT22;5370;50.132;8.626;2024-03-02T07:19:56;5.60;96.10
10644;DHT22;5370;50.132;8.626;2024-03-02T07:22:22;5.50;96.00
10644;DHT22;5370;50.132;8.626;2024-03-02T07:24:48;5.50;96.10
10644;DHT22;5370;50.132;8.626;2024-03-02T07:27:14;5.50;96.10
10644;DHT22;5370;50.132;8.626;2024-03-02T07:29:40;5.50;96.10
10644;DHT22;5370;50.132;8.626;2024-03-02T07:32:07;5.50;96.10
10644;DHT22;5370;50.132;8.626;2024-03-02T07:34:32;5.50;96.30
10644;DHT22;5370;50.132;8.626;2024-03-02T07:36:58;5.50;96.20
10644;DHT22;5370;50.132;8.626;2024-03-02T07:39:24;5.50;96.20
10644;DHT22;5370;50.132;8.626;2024-03-02T07:41:50;5.50;96.20
10644;DHT22;5370;50.132;8.626;2024-03-02T07:44:15;5.60;96.30
10644;DHT22;5370;50.132;8.626;2024-03-02T07:46:42;5.60;96.40
10644;DHT22;5370;50.132;8.626;2024-03-02T07:49:08;5.70;96.60
10644;DHT22;5370;50.132;8.626;2024-03-02T07:51:34;5.90;96.80
10644;DHT22;5370;50.132;8.626;2024-03-02T07:54:00;6.10;97.00
10644;DHT22;5370;50.132;8.626;2024-03-02T07:56:25;6.30;96.90
10644;DHT22;5370;50.132;8.626;2024-03-02T07:58:51;6.50;96.80
10644;DHT22;5370;50.132;8.626;2024-03-02T08:01:17;6.80;96.90
10644;DHT22;5370;50.132;8.626;2024-03-02T08:03:43;7.20;97.00
10644;DHT22;5370;50.132;8.626;2024-03-02T08:06:14;7.60;97.20
10644;DHT22;5370;50.132;8.626;2024-03-02T08:08:40;8.00;96.50
10644;DHT22;5370;50.132;8.626;2024-03-02T08:11:06;8.20;95.70
10644;DHT22;5370;50.132;8.626;2024-03-02T08:13:32;8.60;96.10
10644;DHT22;5370;50.132;8.626;2024-03-02T08:15:57;9.20;96.70
10644;DHT22;5370;50.132;8.626;2024-03-02T08:18:23;10.10;95.80
10644;DHT22;5370;50.132;8.626;2024-03-02T08:20:49;10.70;94.00
10644;DHT22;5370;50.132;8.626;2024-03-02T08:23:14;11.10;92.30
10644;DHT22;5370;50.132;8.626;2024-03-02T08:25:40;11.30;90.70
10644;DHT22;5370;50.132;8.626;2024-03-02T08:28:06;11.10;86.70
10644;DHT22;5370;50.132;8.626;2024-03-02T08:30:31;11.10;87.00
10644;DHT22;5370;50.132;8.626;2024-03-02T08:32:57;11.10;87.00
10644;DHT22;5370;50.132;8.626;2024-03-02T08:35:22;11.10;86.50
10644;DHT22;5370;50.132;8.626;2024-03-02T08:37:48;11.10;84.90
10644;DHT22;5370;50.132;8.626;2024-03-02T08:40:14;11.10;84.70
10644;DHT22;5370;50.132;8.626;2024-03-02T08:42:40;11.20;84.40
10644;DHT22;5370;50.132;8.626;2024-03-02T08:45:06;11.10;83.60
10644;DHT22;5370;50.132;8.626;2024-03-02T08:47:33;11.10;83.10
10644;DHT22;5370;50.132;8.626;2024-03-02T08:49:59;11.00;82.80
10644;DHT22;5370;50.132;8.626;2024-03-02T08:52:25;10.90;82.50
10644;DHT22;5370;50.132;8.626;2024-03-02T08:54:51;10.90;82.60
10644;DHT22;5370;50.132;8.626;2024-03-02T08:57:16;10.90;82.40
10644;DHT22;5370;50.132;8.626;2024-03-02T08:59:42;10.90;81.90
10644;DHT22;5370;50.132;8.626;2024-03-02T09:02:07;10.90;82.00
10644;DHT22;5370;50.132;8.626;2024-03-02T09:04:33;10.90;82.20
10644;DHT22;5370;50.132;8.626;2024-03-02T09:06:58;11.00;81.60
10644;DHT22;5370;50.132;8.626;2024-03-02T09:09:24;11.00;81.10
10644;DHT22;5370;50.132;8.626;2024-03-02T09:11:50;11.10;81.00
10644;DHT22;5370;50.132;8.626;2024-03-02T09:14:15;11.20;81.00
10644;DHT22;5370;50.132;8.626;2024-03-02T09:16:41;11.30;80.80
10644;DHT22;5370;50.132;8.626;2024-03-02T09:19:07;11.40;80.00
10644;DHT22;5370;50.132;8.626;2024-03-02T09:21:32;11.40;79.20
10644;DHT22;5370;50.132;8.626;2024-03-02T09:23:58;11.50;79.10
10644;DHT22;5370;50.132;8.626;2024-03-02T09:26:23;11.50;78.10
10644;DHT22;5370;50.132;8.626;2024-03-02T09:28:50;11.60;78.00
10644;DHT22;5370;50.132;8.626;2024-03-02T09:31:16;11.70;78.10
10644;DHT22;5370;50.132;8.626;2024-03-02T09:33:41;11.80;77.60
10644;DHT22;5370;50.132;8.626;2024-03-02T09:36:20;12.00;77.50
10644;DHT22;5370;50.132;8.626;2024-03-02T09:38:45;12.20;77.60
10644;DHT22;5370;50.132;8.626;2024-03-02T09:41:12;12.40;76.80
10644;DHT22;5370;50.132;8.626;2024-03-02T09:43:38;12.50;75.50
10644;DHT22;5370;50.132;8.626;2024-03-02T09:46:03;12.60;75.00
10644;DHT22;5370;50.132;8.626;2024-03-02T09:48:29;12.70;74.20
10644;DHT22;5370;50.132;8.626;2024-03-02T09:50:54;12.90;73.90
10644;DHT22;5370;50.132;8.626;2024-03-02T09:53:20;13.10;73.30
10644;DHT22;5370;50.132;8.626;2024-03-02T09:55:47;13.20;72.60
10644;DHT22;5370;50.132;8.626;2024-03-02T09:58:13;13.30;70.30
10644;DHT22;5370;50.132;8.626;2024-03-02T10:00:38;13.30;69.90
10644;DHT22;5370;50.132;8.626;2024-03-02T10:03:04;13.40;69.70
10644;DHT22;5370;50.132;8.626;2024-03-02T10:05:33;13.50;68.40
10644;DHT22;5370;50.132;8.626;2024-03-02T10:08:02;13.50;67.70
10644;DHT22;5370;50.132;8.626;2024-03-02T10:10:38;13.60;67.60
10644;DHT22;5370;50.132;8.626;2024-03-02T10:13:11;13.70;67.40
10644;DHT22;5370;50.132;8.626;2024-03-02T10:15:38;13.80;66.90
10644;DHT22;5370;50.132;8.626;2024-03-02T10:18:11;13.80;66.20
10644;DHT22;5370;50.132;8.626;2024-03-02T10:20:38;13.80;66.20
10644;DHT22;5370;50.132;8.626;2024-03-02T10:25:36;13.90;64.60
10644;DHT22;5370;50.132;8.626;2024-03-02T10:28:02;13.90;62.80
10644;DHT22;5370;50.132;8.626;2024-03-02T10:30:30;13.90;62.60
10644;DHT22;5370;50.132;8.626;2024-03-02T10:32:56;13.90;62.60
10644;DHT22;5370;50.132;8.626;2024-03-02T10:35:24;13.90;62.40
10644;DHT22;5370;50.132;8.626;2024-03-02T10:37:52;13.90;62.40
10644;DHT22;5370;50.132;8.626;2024-03-02T10:40:21;14.00;62.60
10644;DHT22;5370;50.132;8.626;2024-03-02T10:42:47;14.10;62.30
10644;DHT22;5370;50.132;8.626;2024-03-02T10:45:15;14.20;61.40
10644;DHT22;5370;50.132;8.626;2024-03-02T10:47:42;14.20;60.80
10644;DHT22;5370;50.132;8.626;2024-03-02T10:50:08;14.20;61.10
10644;DHT22;5370;50.132;8.626;2024-03-02T10:52:38;14.10;60.70
10644;DHT22;5370;50.132;8.626;2024-03-02T10:55:05;14.10;61.30
10644;DHT22;5370;50.132;8.626;2024-03-02T11:00:12;14.00;61.40
10644;DHT22;5370;50.132;8.626;2024-03-02T11:02:46;14.00;61.10
10644;DHT22;5370;50.132;8.626;2024-03-02T11:05:22;13.90;61.20
10644;DHT22;5370;50.132;8.626;2024-03-02T11:07:51;13.80;61.30
10644;DHT22;5370;50.132;8.626;2024-03-02T11:10:18;13.80;61.50
10644;DHT22;5370;50.132;8.626;2024-03-02T11:12:59;13.80;62.20
10644;DHT22;5370;50.132;8.626;2024-03-02T11:15:27;13.80;61.90
10644;DHT22;5370;50.132;8.626;2024-03-02T11:17:53;13.80;62.60
10644;DHT22;5370;50.132;8.626;2024-03-02T11:20:19;13.80;62.40
10644;DHT22;5370;50.132;8.626;2024-03-02T11:22:45;13.80;62.10
10644;DHT22;5370;50.132;8.626;2024-03-02T11:25:27;13.80;62.20
10644;DHT22;5370;50.132;8.626;2024-03-02T11:33:00;13.80;62.70
10644;DHT22;5370;50.132;8.626;2024-03-02T11:35:29;13.80;62.10
10644;DHT22;5370;50.132;8.626;2024-03-02T11:37:54;14.00;62.10
10644;DHT22;5370;50.132;8.626;2024-03-02T11:40:24;14.00;62.50
10644;DHT22;5370;50.132;8.626;2024-03-02T11:42:50;14.00;61.40
10644;DHT22;5370;50.132;8.626;2024-03-02T11:45:28;14.10;62.00
10644;DHT22;5370;50.132;8.626;2024-03-02T11:47:55;14.30;62.00
10644;DHT22;5370;50.132;8.626;2024-03-02T11:50:57;14.40;61.40
10644;DHT22;5370;50.132;8.626;2024-03-02T11:53:23;14.60;60.70
10644;DHT22;5370;50.132;8.626;2024-03-02T11:55:50;14.70;60.50
10644;DHT22;5370;50.132;8.626;2024-03-02T11:58:17;14.80;60.20
10644;DHT22;5370;50.132;8.626;2024-03-02T12:00:46;14.80;59.80
10644;DHT22;5370;50.132;8.626;2024-03-02T12:03:13;14.90;59.60
10644;DHT22;5370;50.132;8.626;2024-03-02T12:05:39;15.00;59.40
10644;DHT22;5370;50.132;8.626;2024-03-02T12:08:08;15.00;59.00
10644;DHT22;5370;50.132;8.626;2024-03-02T12:10:35;15.10;58.90
10644;DHT22;5370;50.132;8.626;2024-03-02T12:13:05;15.00;57.90
10644;DHT22;5370;50.132;8.626;2024-03-02T12:15:38;15.00;57.50
10644;DHT22;5370;50.132;8.626;2024-03-02T12:18:04;15.00;57.50
10644;DHT22;5370;50.132;8.626;2024-03-02T12:20:32;14.90;57.20
10644;DHT22;5370;50.132;8.626;2024-03-02T12:22:59;14.90;56.70
10644;DHT22;5370;50.132;8.626;2024-03-02T12:25:26;14.70;56.90
10644;DHT22;5370;50.132;8.626;2024-03-02T12:27:58;14.70;57.10
10644;DHT22;5370;50.132;8.626;2024-03-02T12:30:27;14.80;57.20
10644;DHT22;5370;50.132;8.626;2024-03-02T12:32:54;14.90;57.30
10644;DHT22;5370;50.132;8.626;2024-03-02T12:35:20;15.00;57.00
10644;DHT22;5370;50.132;8.626;2024-03-02T12:37:50;15.00;56.50
10644;DHT22;5370;50.132;8.626;2024-03-02T12:40:17;15.00;56.80
10644;DHT22;5370;50.132;8.626;2024-03-02T12:42:44;15.10;57.90
10644;DHT22;5370;50.132;8.626;2024-03-02T12:45:10;15.10;57.90
10644;DHT22;5370;50.132;8.626;2024-03-02T12:47:37;15.20;56.70
10644;DHT22;5370;50.132;8.626;2024-03-02T12:50:04;15.20;57.50
10644;DHT22;5370;50.132;8.626;2024-03-02T12:52:30;15.30;57.10
10644;DHT22;5370;50.132;8.626;2024-03-02T12:54:58;15.30;57.70
10644;DHT22;5370;50.132;8.626;2024-03-02T12:57:29;15.40;58.70
10644;DHT22;5370;50.132;8.626;2024-03-02T13:00:02;15.60;59.50
10644;DHT22;5370;50.132;8.626;2024-03-02T13:02:34;15.70;61.30
10644;DHT22;5370;50.132;8.626;2024-03-02T13:05:00;15.90;55.50
10644;DHT22;5370;50.132;8.626;2024-03-02T13:07:26;15.90;54.30
10644;DHT22;5370;50.132;8.626;2024-03-02T13:09:52;15.80;54.00
10644;DHT22;5370;50.132;8.626;2024-03-02T13:12:19;15.80;54.20
10644;DHT22;5370;50.132;8.626;2024-03-02T13:14:48;15.70;54.20
10644;DHT22;5370;50.132;8.626;2024-03-02T13:17:14;15.80;54.40
10644;DHT22;5370;50.132;8.626;2024-03-02T13:20:00;15.80;54.80
10644;DHT22;5370;50.132;8.626;2024-03-02T13:22:26;15.90;54.40
10644;DHT22;5370;50.132;8.626;2024-03-02T13:24:53;15.80;53.60
10644;DHT22;5370;50.132;8.626;2024-03-02T13:27:22;15.80;53.50
10644;DHT22;5370;50.132;8.626;2024-03-02T13:29:48;15.90;53.80
10644;DHT22;5370;50.132;8.626;2024-03-02T13:32:14;15.90;53.80
10644;DHT22;5370;50.132;8.626;2024-03-02T13:34:40;16.00;53.90
10644;DHT22;5370;50.132;8.626;2024-03-02T13:37:05;16.20;53.90
10644;DHT22;5370;50.132;8.626;2024-03-02T13:39:34;16.30;53.70
10644;DHT22;5370;50.132;8.626;2024-03-02T13:42:07;16.40;52.90
10644;DHT22;5370;50.132;8.626;2024-03-02T13:44:33;16.50;52.50
10644;DHT22;5370;50.132;8.626;2024-03-02T13:47:00;16.50;51.80
10644;DHT22;5370;50.132;8.626;2024-03-02T13:49:26;16.60;51.70
10644;DHT22;5370;50.132;8.626;2024-03-02T13:51:59;16.70;52.00
10644;DHT22;5370;50.132;8.626;2024-03-02T13:54:26;16.80;52.20
10644;DHT22;5370;50.132;8.626;2024-03-02T13:56:52;16.90;51.70
10644;DHT22;5370;50.132;8.626;2024-03-02T13:59:17;16.90;51.30
10644;DHT22;5370;50.132;8.626;2024-03-02T14:01:44;16.90;51.10
10644;DHT22;5370;50.132;8.626;2024-03-02T14:04:09;16.80;51.00
10644;DHT22;5370;50.132;8.626;2024-03-02T14:06:35;16.80;50.50
10644;DHT22;5370;50.132;8.626;2024-03-02T14:09:01;16.80;50.60
10644;DHT22;5370;50.132;8.626;2024-03-02T14:11:26;16.80;50.00
10644;DHT22;5370;50.132;8.626;2024-03-02T14:13:52;16.80;50.50
10644;DHT22;5370;50.132;8.626;2024-03-02T14:16:20;16.70;50.70
10644;DHT22;5370;50.132;8.626;2024-03-02T14:18:46;16.70;50.50
10644;DHT22;5370;50.132;8.626;2024-03-02T14:21:11;16.60;50.60
10644;DHT22;5370;50.132;8.626;2024-03-02T14:23:37;16.60;51.40
10644;DHT22;5370;50.132;8.626;2024-03-02T14:26:03;16.60;51.80
10644;DHT22;5370;50.132;8.626;2024-03-02T14:28:28;16.60;51.30
10644;DHT22;5370;50.132;8.626;2024-03-02T14:30:54;16.60;50.90
10644;DHT22;5370;50.132;8.626;2024-03-02T14:33:20;16.50;50.50
10644;DHT22;5370;50.132;8.626;2024-03-02T14:35:46;16.50;50.70
10644;DHT22;5370;50.132;8.626;2024-03-02T14:38:12;16.50;51.30
10644;DHT22;5370;50.132;8.626;2024-03-02T14:40:37;16.60;51.80
10644;DHT22;5370;50.132;8.626;2024-03-02T14:43:04;16.60;51.50
10644;DHT22;5370;50.132;8.626;2024-03-02T14:45:29;16.60;51.60
10644;DHT22;5370;50.132;8.626;2024-03-02T14:47:55;16.70;51.50
10644;DHT22;5370;50.132;8.626;2024-03-02T14:50:21;16.70;50.70
10644;DHT22;5370;50.132;8.626;2024-03-02T14:52:47;16.60;49.80
10644;DHT22;5370;50.132;8.626;2024-03-02T14:55:13;16.60;49.90
10644;DHT22;5370;50.132;8.626;2024-03-02T14:57:39;16.60;50.20
10644;DHT22;5370;50.132;8.626;2024-03-02T15:00:05;16.60;50.60
10644;DHT22;5370;50.132;8.626;2024-03-02T15:02:33;16.60;50.70
10644;DHT22;5370;50.132;8.626;2024-03-02T15:04:59;16.60;50.20
10644;DHT22;5370;50.132;8.626;2024-03-02T15:07:25;16.60;50.60
10644;DHT22;5370;50.132;8.626;2024-03-02T15:09:51;16.60;51.20
10644;DHT22;5370;50.132;8.626;2024-03-02T15:12:16;16.50;51.20
10644;DHT22;5370;50.132;8.626;2024-03-02T15:14:43;16.40;50.90
10644;DHT22;5370;50.132;8.626;2024-03-02T15:17:14;16.20;50.60
10644;DHT22;5370;50.132;8.626;2024-03-02T15:19:44;16.10;50.80
10644;DHT22;5370;50.132;8.626;2024-03-02T15:22:10;15.90;50.80
10644;DHT22;5370;50.132;8.626;2024-03-02T15:24:35;15.80;51.00
10644;DHT22;5370;50.132;8.626;2024-03-02T15:27:01;15.60;51.20
10644;DHT22;5370;50.132;8.626;2024-03-02T15:29:31;15.50;51.40
10644;DHT22;5370;50.132;8.626;2024-03-02T15:32:00;15.40;51.50
10644;DHT22;5370;50.132;8.626;2024-03-02T15:34:26;15.40;51.60
10644;DHT22;5370;50.132;8.626;2024-03-02T15:36:52;15.40;52.00
10644;DHT22;5370;50.132;8.626;2024-03-02T15:39:18;15.50;52.00
10644;DHT22;5370;50.132;8.626;2024-03-02T15:41:44;15.50;51.90
10644;DHT22;5370;50.132;8.626;2024-03-02T15:44:10;15.60;51.80
10644;DHT22;5370;50.132;8.626;2024-03-02T15:46:35;15.60;52.10
10644;DHT22;5370;50.132;8.626;2024-03-02T15:49:01;15.70;52.20
10644;DHT22;5370;50.132;8.626;2024-03-02T15:51:27;15.70;51.80
10644;DHT22;5370;50.132;8.626;2024-03-02T15:53:53;15.80;51.60
10644;DHT22;5370;50.132;8.626;2024-03-02T15:56:18;15.80;51.40
10644;DHT22;5370;50.132;8.626;2024-03-02T15:58:44;15.90;51.10
10644;DHT22;5370;50.132;8.626;2024-03-02T16:01:11;15.90;50.50